sensor_id;sensor_type;location;lat;lon;timestamp;P1;durP1;ratioP1;P2;durP2;ratioP2
45762;SDS011;37512;52.408;13.356;2023-05-07T00:02:19;14.85;;;11.60;;
45762;SDS011;37512;52.408;13.356;2023-05-07T00:06:20;16.85;;;11.27;;
45762;SDS011;37512;52.408;13.356;2023-05-07T00:10:22;16.33;;;11.63;;
45762;SDS011;37512;52.408;13.356;2023-05-07T00:14:23;13.75;;;9.82;;
45762;SDS011;37512;52.408;13.356;2023-05-07T00:18:25;12.77;;;9.95;;
45762;SDS011;37512;52.408;13.356;2023-05-07T00:22:26;17.52;;;10.18;;
45762;SDS011;37512;52.408;13.356;2023-05-07T00:26:28;13.68;;;9.38;;
45762;SDS011;37512;52.408;13.356;2023-05-07T00:30:29;15.25;;;10.35;;
45762;SDS011;37512;52.408;13.356;2023-05-07T00:34:31;13.25;;;9.90;;
45762;SDS011;37512;52.408;13.356;2023-05-07T00:38:32;9.60;;;8.20;;
45762;SDS011;37512;52.408;13.356;2023-05-07T00:42:34;15.85;;;8.55;;
45762;SDS011;37512;52.408;13.356;2023-05-07T00:46:35;15.10;;;9.07;;
45762;SDS011;37512;52.408;13.356;2023-05-07T00:50:37;9.73;;;7.20;;
45762;SDS011;37512;52.408;13.356;2023-05-07T00:54:38;9.38;;;7.47;;
45762;SDS011;37512;52.408;13.356;2023-05-07T00:58:42;11.48;;;8.45;;
45762;SDS011;37512;52.408;13.356;2023-05-07T01:02:44;10.68;;;7.93;;
45762;SDS011;37512;52.408;13.356;2023-05-07T01:06:46;11.80;;;7.63;;
45762;SDS011;37512;52.408;13.356;2023-05-07T01:10:48;9.95;;;7.20;;
45762;SDS011;37512;52.408;13.356;2023-05-07T01:14:50;9.85;;;6.88;;
45762;SDS011;37512;52.408;13.356;2023-05-07T01:18:51;11.73;;;6.80;;
45762;SDS011;37512;52.408;13.356;2023-05-07T01:22:53;8.88;;;6.90;;
45762;SDS011;37512;52.408;13.356;2023-05-07T01:26:55;8.90;;;6.78;;
45762;SDS011;37512;52.408;13.356;2023-05-07T01:31:00;11.43;;;7.45;;
45762;SDS011;37512;52.408;13.356;2023-05-07T01:35:03;10.40;;;6.90;;
45762;SDS011;37512;52.408;13.356;2023-05-07T01:39:07;10.02;;;7.18;;
45762;SDS011;37512;52.408;13.356;2023-05-07T01:43:10;9.93;;;7.38;;
45762;SDS011;37512;52.408;13.356;2023-05-07T01:47:12;10.55;;;8.52;;
45762;SDS011;37512;52.408;13.356;2023-05-07T01:51:15;11.45;;;7.80;;
45762;SDS011;37512;52.408;13.356;2023-05-07T01:55:16;11.85;;;8.15;;
45762;SDS011;37512;52.408;13.356;2023-05-07T01:59:18;10.38;;;8.30;;
45762;SDS011;37512;52.408;13.356;2023-05-07T02:03:19;9.57;;;7.20;;
45762;SDS011;37512;52.408;13.356;2023-05-07T02:07:22;14.32;;;8.95;;
45762;SDS011;37512;52.408;13.356;2023-05-07T02:11:23;10.55;;;8.13;;
45762;SDS011;37512;52.408;13.356;2023-05-07T02:15:26;9.40;;;7.28;;
45762;SDS011;37512;52.408;13.356;2023-05-07T02:19:27;11.80;;;8.25;;
45762;SDS011;37512;52.408;13.356;2023-05-07T02:23:29;11.57;;;8.23;;
45762;SDS011;37512;52.408;13.356;2023-05-07T02:27:30;12.38;;;7.43;;
45762;SDS011;37512;52.408;13.356;2023-05-07T02:31:32;15.50;;;7.57;;
45762;SDS011;37512;52.408;13.356;2023-05-07T02:35:35;9.63;;;7.30;;
45762;SDS011;37512;52.408;13.356;2023-05-07T02:39:36;10.05;;;7.78;;
45762;SDS011;37512;52.408;13.356;2023-05-07T02:43:38;10.70;;;8.35;;
45762;SDS011;37512;52.408;13.356;2023-05-07T02:47:39;12.20;;;8.35;;
45762;SDS011;37512;52.408;13.356;2023-05-07T02:51:41;10.35;;;7.50;;
45762;SDS011;37512;52.408;13.356;2023-05-07T02:55:42;10.43;;;7.25;;
45762;SDS011;37512;52.408;13.356;2023-05-07T02:59:44;11.77;;;7.75;;
45762;SDS011;37512;52.408;13.356;2023-05-07T03:03:46;11.63;;;8.43;;
45762;SDS011;37512;52.408;13.356;2023-05-07T03:07:47;10.82;;;8.05;;
45762;SDS011;37512;52.408;13.356;2023-05-07T03:11:49;14.30;;;7.80;;
45762;SDS011;37512;52.408;13.356;2023-05-07T03:15:51;10.25;;;7.47;;
45762;SDS011;37512;52.408;13.356;2023-05-07T03:19:52;10.68;;;7.25;;
45762;SDS011;37512;52.408;13.356;2023-05-07T03:23:53;12.65;;;7.95;;
45762;SDS011;37512;52.408;13.356;2023-05-07T03:27:55;10.63;;;7.63;;
45762;SDS011;37512;52.408;13.356;2023-05-07T03:31:57;8.82;;;6.97;;
45762;SDS011;37512;52.408;13.356;2023-05-07T03:35:59;11.43;;;8.00;;
45762;SDS011;37512;52.408;13.356;2023-05-07T03:40:00;10.60;;;6.72;;
45762;SDS011;37512;52.408;13.356;2023-05-07T03:44:02;11.48;;;8.48;;
45762;SDS011;37512;52.408;13.356;2023-05-07T03:48:03;11.43;;;7.63;;
45762;SDS011;37512;52.408;13.356;2023-05-07T03:52:05;17.23;;;7.65;;
45762;SDS011;37512;52.408;13.356;2023-05-07T03:56:07;12.77;;;8.32;;
45762;SDS011;37512;52.408;13.356;2023-05-07T04:00:08;10.00;;;8.00;;
45762;SDS011;37512;52.408;13.356;2023-05-07T04:04:14;10.65;;;8.43;;
45762;SDS011;37512;52.408;13.356;2023-05-07T04:08:15;10.68;;;8.13;;
45762;SDS011;37512;52.408;13.356;2023-05-07T04:12:17;11.52;;;7.68;;
45762;SDS011;37512;52.408;13.356;2023-05-07T04:16:18;11.57;;;7.03;;
45762;SDS011;37512;52.408;13.356;2023-05-07T04:20:20;11.68;;;7.75;;
45762;SDS011;37512;52.408;13.356;2023-05-07T04:24:21;11.10;;;7.78;;
45762;SDS011;37512;52.408;13.356;2023-05-07T04:28:23;8.43;;;5.93;;
45762;SDS011;37512;52.408;13.356;2023-05-07T04:32:25;9.85;;;7.22;;
45762;SDS011;37512;52.408;13.356;2023-05-07T04:36:27;10.50;;;8.27;;
45762;SDS011;37512;52.408;13.356;2023-05-07T04:40:29;10.57;;;7.55;;
45762;SDS011;37512;52.408;13.356;2023-05-07T04:44:31;12.57;;;7.82;;
45762;SDS011;37512;52.408;13.356;2023-05-07T04:48:32;9.70;;;7.32;;
45762;SDS011;37512;52.408;13.356;2023-05-07T04:52:34;10.32;;;6.38;;
45762;SDS011;37512;52.408;13.356;2023-05-07T04:56:35;9.88;;;7.35;;
45762;SDS011;37512;52.408;13.356;2023-05-07T05:00:37;11.13;;;8.07;;
45762;SDS011;37512;52.408;13.356;2023-05-07T05:04:40;10.48;;;7.25;;
45762;SDS011;37512;52.408;13.356;2023-05-07T05:08:43;11.85;;;7.20;;
45762;SDS011;37512;52.408;13.356;2023-05-07T05:12:44;9.25;;;6.93;;
45762;SDS011;37512;52.408;13.356;2023-05-07T05:16:46;9.23;;;6.38;;
45762;SDS011;37512;52.408;13.356;2023-05-07T05:20:47;8.50;;;6.10;;
45762;SDS011;37512;52.408;13.356;2023-05-07T05:24:49;9.30;;;6.60;;
45762;SDS011;37512;52.408;13.356;2023-05-07T05:28:50;9.13;;;6.80;;
45762;SDS011;37512;52.408;13.356;2023-05-07T05:32:52;9.48;;;6.65;;
45762;SDS011;37512;52.408;13.356;2023-05-07T05:36:53;10.07;;;5.88;;
45762;SDS011;37512;52.408;13.356;2023-05-07T05:40:55;7.60;;;5.90;;
45762;SDS011;37512;52.408;13.356;2023-05-07T05:44:57;11.23;;;6.20;;
45762;SDS011;37512;52.408;13.356;2023-05-07T05:48:58;7.63;;;5.35;;
45762;SDS011;37512;52.408;13.356;2023-05-07T05:53:00;7.97;;;5.72;;
45762;SDS011;37512;52.408;13.356;2023-05-07T05:57:01;8.30;;;4.95;;
45762;SDS011;37512;52.408;13.356;2023-05-07T06:01:05;10.80;;;5.65;;
45762;SDS011;37512;52.408;13.356;2023-05-07T06:05:06;8.32;;;5.57;;
45762;SDS011;37512;52.408;13.356;2023-05-07T06:09:08;8.18;;;4.15;;
45762;SDS011;37512;52.408;13.356;2023-05-07T06:13:10;7.35;;;4.85;;
45762;SDS011;37512;52.408;13.356;2023-05-07T06:17:12;6.90;;;4.80;;
45762;SDS011;37512;52.408;13.356;2023-05-07T06:21:14;4.70;;;3.83;;
45762;SDS011;37512;52.408;13.356;2023-05-07T06:25:16;5.22;;;4.18;;
45762;SDS011;37512;52.408;13.356;2023-05-07T06:29:17;7.93;;;4.82;;
45762;SDS011;37512;52.408;13.356;2023-05-07T06:33:19;6.13;;;4.45;;
45762;SDS011;37512;52.408;13.356;2023-05-07T06:37:21;7.68;;;5.20;;
45762;SDS011;37512;52.408;13.356;2023-05-07T06:41:31;9.52;;;5.15;;
45762;SDS011;37512;52.408;13.356;2023-05-07T06:45:35;9.52;;;5.05;;
45762;SDS011;37512;52.408;13.356;2023-05-07T06:49:37;6.93;;;5.07;;
45762;SDS011;37512;52.408;13.356;2023-05-07T06:53:39;8.60;;;5.53;;
45762;SDS011;37512;52.408;13.356;2023-05-07T06:57:41;8.52;;;5.15;;
45762;SDS011;37512;52.408;13.356;2023-05-07T07:01:43;6.85;;;4.90;;
45762;SDS011;37512;52.408;13.356;2023-05-07T07:05:44;7.53;;;4.93;;
45762;SDS011;37512;52.408;13.356;2023-05-07T07:09:46;6.85;;;4.85;;
45762;SDS011;37512;52.408;13.356;2023-05-07T07:13:47;5.47;;;4.25;;
45762;SDS011;37512;52.408;13.356;2023-05-07T07:17:49;5.95;;;4.57;;
45762;SDS011;37512;52.408;13.356;2023-05-07T07:21:50;6.40;;;4.47;;
45762;SDS011;37512;52.408;13.356;2023-05-07T07:25:52;6.72;;;4.90;;
45762;SDS011;37512;52.408;13.356;2023-05-07T07:29:53;6.75;;;4.38;;
45762;SDS011;37512;52.408;13.356;2023-05-07T07:33:55;6.18;;;4.70;;
45762;SDS011;37512;52.408;13.356;2023-05-07T07:37:56;7.13;;;5.65;;
45762;SDS011;37512;52.408;13.356;2023-05-07T07:42:00;8.10;;;5.20;;
45762;SDS011;37512;52.408;13.356;2023-05-07T07:46:02;5.95;;;4.63;;
45762;SDS011;37512;52.408;13.356;2023-05-07T07:50:04;7.60;;;4.72;;
45762;SDS011;37512;52.408;13.356;2023-05-07T07:54:06;5.72;;;4.03;;
45762;SDS011;37512;52.408;13.356;2023-05-07T07:58:08;8.07;;;4.78;;
45762;SDS011;37512;52.408;13.356;2023-05-07T08:02:09;5.30;;;4.22;;
45762;SDS011;37512;52.408;13.356;2023-05-07T08:06:11;4.93;;;3.30;;
45762;SDS011;37512;52.408;13.356;2023-05-07T08:10:15;4.55;;;3.50;;
45762;SDS011;37512;52.408;13.356;2023-05-07T08:14:22;6.38;;;3.35;;
45762;SDS011;37512;52.408;13.356;2023-05-07T08:18:24;5.80;;;2.95;;
45762;SDS011;37512;52.408;13.356;2023-05-07T08:22:26;5.25;;;3.13;;
45762;SDS011;37512;52.408;13.356;2023-05-07T08:26:28;4.68;;;3.33;;
45762;SDS011;37512;52.408;13.356;2023-05-07T08:30:29;6.38;;;2.88;;
45762;SDS011;37512;52.408;13.356;2023-05-07T08:34:31;3.65;;;2.97;;
45762;SDS011;37512;52.408;13.356;2023-05-07T08:38:32;3.58;;;2.63;;
45762;SDS011;37512;52.408;13.356;2023-05-07T08:42:37;4.00;;;3.05;;
45762;SDS011;37512;52.408;13.356;2023-05-07T08:46:39;4.18;;;2.55;;
45762;SDS011;37512;52.408;13.356;2023-05-07T08:50:43;3.45;;;3.00;;
45762;SDS011;37512;52.408;13.356;2023-05-07T08:54:44;3.20;;;2.70;;
45762;SDS011;37512;52.408;13.356;2023-05-07T08:58:46;4.85;;;2.50;;
45762;SDS011;37512;52.408;13.356;2023-05-07T09:02:47;3.80;;;2.70;;
45762;SDS011;37512;52.408;13.356;2023-05-07T09:06:49;3.65;;;2.35;;
45762;SDS011;37512;52.408;13.356;2023-05-07T09:10:52;4.65;;;2.42;;
45762;SDS011;37512;52.408;13.356;2023-05-07T09:14:53;3.78;;;2.20;;
45762;SDS011;37512;52.408;13.356;2023-05-07T09:18:58;3.08;;;2.33;;
45762;SDS011;37512;52.408;13.356;2023-05-07T09:23:01;3.30;;;2.00;;
45762;SDS011;37512;52.408;13.356;2023-05-07T09:27:03;3.35;;;2.13;;
45762;SDS011;37512;52.408;13.356;2023-05-07T09:31:05;2.38;;;1.85;;
45762;SDS011;37512;52.408;13.356;2023-05-07T09:35:14;2.22;;;1.73;;
45762;SDS011;37512;52.408;13.356;2023-05-07T09:39:17;3.80;;;1.92;;
45762;SDS011;37512;52.408;13.356;2023-05-07T09:43:19;2.30;;;1.58;;
45762;SDS011;37512;52.408;13.356;2023-05-07T09:47:20;3.30;;;1.80;;
45762;SDS011;37512;52.408;13.356;2023-05-07T09:51:37;6.00;;;2.00;;
45762;SDS011;37512;52.408;13.356;2023-05-07T09:56:00;3.00;;;1.60;;
45762;SDS011;37512;52.408;13.356;2023-05-07T10:00:05;3.95;;;1.92;;
45762;SDS011;37512;52.408;13.356;2023-05-07T10:04:10;4.35;;;2.05;;
45762;SDS011;37512;52.408;13.356;2023-05-07T10:08:13;3.17;;;2.03;;
45762;SDS011;37512;52.408;13.356;2023-05-07T10:12:17;2.67;;;1.73;;
45762;SDS011;37512;52.408;13.356;2023-05-07T10:16:21;3.40;;;2.05;;
45762;SDS011;37512;52.408;13.356;2023-05-07T10:20:23;4.00;;;2.00;;
45762;SDS011;37512;52.408;13.356;2023-05-07T10:24:28;3.50;;;1.92;;
45762;SDS011;37512;52.408;13.356;2023-05-07T10:28:34;3.33;;;1.85;;
45762;SDS011;37512;52.408;13.356;2023-05-07T10:32:48;2.47;;;1.65;;
45762;SDS011;37512;52.408;13.356;2023-05-07T10:36:52;8.05;;;1.65;;
45762;SDS011;37512;52.408;13.356;2023-05-07T10:40:56;2.00;;;1.35;;
45762;SDS011;37512;52.408;13.356;2023-05-07T10:44:58;2.78;;;1.70;;
45762;SDS011;37512;52.408;13.356;2023-05-07T10:49:14;2.75;;;1.60;;
45762;SDS011;37512;52.408;13.356;2023-05-07T10:57:36;2.08;;;1.55;;
45762;SDS011;37512;52.408;13.356;2023-05-07T11:18:47;2.40;;;1.60;;
45762;SDS011;37512;52.408;13.356;2023-05-07T11:22:53;2.42;;;1.67;;
45762;SDS011;37512;52.408;13.356;2023-05-07T11:26:56;3.35;;;1.80;;
45762;SDS011;37512;52.408;13.356;2023-05-07T11:30:59;2.88;;;1.90;;
45762;SDS011;37512;52.408;13.356;2023-05-07T11:35:01;2.38;;;1.67;;
45762;SDS011;37512;52.408;13.356;2023-05-07T11:39:03;3.28;;;1.70;;
45762;SDS011;37512;52.408;13.356;2023-05-07T11:43:11;4.70;;;3.03;;
45762;SDS011;37512;52.408;13.356;2023-05-07T11:47:17;3.47;;;2.20;;
45762;SDS011;37512;52.408;13.356;2023-05-07T11:51:20;2.85;;;1.80;;
45762;SDS011;37512;52.408;13.356;2023-05-07T11:55:23;2.42;;;1.90;;
45762;SDS011;37512;52.408;13.356;2023-05-07T11:59:25;2.60;;;1.73;;
45762;SDS011;37512;52.408;13.356;2023-05-07T12:03:27;2.22;;;1.67;;
45762;SDS011;37512;52.408;13.356;2023-05-07T12:07:33;4.03;;;2.40;;
45762;SDS011;37512;52.408;13.356;2023-05-07T12:11:35;2.47;;;1.58;;
45762;SDS011;37512;52.408;13.356;2023-05-07T12:15:36;2.10;;;1.58;;
45762;SDS011;37512;52.408;13.356;2023-05-07T12:19:38;2.08;;;1.40;;
45762;SDS011;37512;52.408;13.356;2023-05-07T12:23:41;2.65;;;1.20;;
45762;SDS011;37512;52.408;13.356;2023-05-07T12:27:42;3.15;;;1.67;;
45762;SDS011;37512;52.408;13.356;2023-05-07T12:31:44;2.00;;;1.52;;
45762;SDS011;37512;52.408;13.356;2023-05-07T12:35:46;2.72;;;1.63;;
45762;SDS011;37512;52.408;13.356;2023-05-07T12:39:49;1.77;;;1.35;;
45762;SDS011;37512;52.408;13.356;2023-05-07T12:44:04;3.10;;;1.63;;
45762;SDS011;37512;52.408;13.356;2023-05-07T12:48:06;3.03;;;1.50;;
45762;SDS011;37512;52.408;13.356;2023-05-07T12:52:08;1.58;;;1.10;;
45762;SDS011;37512;52.408;13.356;2023-05-07T12:56:09;2.15;;;1.40;;
45762;SDS011;37512;52.408;13.356;2023-05-07T13:00:11;1.83;;;1.35;;
45762;SDS011;37512;52.408;13.356;2023-05-07T13:04:14;2.45;;;1.67;;
45762;SDS011;37512;52.408;13.356;2023-05-07T13:12:33;2.38;;;2.10;;
45762;SDS011;37512;52.408;13.356;2023-05-07T13:16:34;1.88;;;1.33;;
45762;SDS011;37512;52.408;13.356;2023-05-07T13:20:36;2.20;;;1.48;;
45762;SDS011;37512;52.408;13.356;2023-05-07T13:24:37;2.75;;;1.70;;
45762;SDS011;37512;52.408;13.356;2023-05-07T13:28:39;2.13;;;1.42;;
45762;SDS011;37512;52.408;13.356;2023-05-07T13:32:41;3.60;;;1.23;;
45762;SDS011;37512;52.408;13.356;2023-05-07T13:36:43;4.13;;;1.48;;
45762;SDS011;37512;52.408;13.356;2023-05-07T13:40:44;3.33;;;1.70;;
45762;SDS011;37512;52.408;13.356;2023-05-07T13:44:46;2.72;;;1.90;;
45762;SDS011;37512;52.408;13.356;2023-05-07T13:48:47;4.10;;;1.33;;
45762;SDS011;37512;52.408;13.356;2023-05-07T13:52:49;3.03;;;1.90;;
45762;SDS011;37512;52.408;13.356;2023-05-07T13:56:53;3.92;;;2.08;;
45762;SDS011;37512;52.408;13.356;2023-05-07T14:00:54;4.40;;;1.55;;
45762;SDS011;37512;52.408;13.356;2023-05-07T14:04:56;2.55;;;1.30;;
45762;SDS011;37512;52.408;13.356;2023-05-07T14:08:57;2.67;;;1.30;;
45762;SDS011;37512;52.408;13.356;2023-05-07T14:12:59;2.38;;;1.60;;
45762;SDS011;37512;52.408;13.356;2023-05-07T14:17:01;3.05;;;1.38;;
45762;SDS011;37512;52.408;13.356;2023-05-07T14:21:02;2.20;;;1.20;;
45762;SDS011;37512;52.408;13.356;2023-05-07T14:25:05;2.75;;;1.80;;
45762;SDS011;37512;52.408;13.356;2023-05-07T14:29:07;3.35;;;1.90;;
45762;SDS011;37512;52.408;13.356;2023-05-07T14:33:09;2.60;;;1.45;;
45762;SDS011;37512;52.408;13.356;2023-05-07T14:37:10;2.17;;;1.48;;
45762;SDS011;37512;52.408;13.356;2023-05-07T14:41:12;2.85;;;1.80;;
45762;SDS011;37512;52.408;13.356;2023-05-07T14:45:14;4.20;;;1.45;;
45762;SDS011;37512;52.408;13.356;2023-05-07T14:49:16;1.88;;;1.33;;
45762;SDS011;37512;52.408;13.356;2023-05-07T14:53:20;3.15;;;1.52;;
45762;SDS011;37512;52.408;13.356;2023-05-07T14:57:22;1.98;;;1.50;;
45762;SDS011;37512;52.408;13.356;2023-05-07T15:01:26;1.85;;;1.30;;
45762;SDS011;37512;52.408;13.356;2023-05-07T15:05:28;1.55;;;1.27;;
45762;SDS011;37512;52.408;13.356;2023-05-07T15:09:29;2.50;;;1.48;;
45762;SDS011;37512;52.408;13.356;2023-05-07T15:13:31;2.03;;;1.27;;
45762;SDS011;37512;52.408;13.356;2023-05-07T15:17:32;2.38;;;1.65;;
45762;SDS011;37512;52.408;13.356;2023-05-07T15:21:34;6.00;;;1.58;;
45762;SDS011;37512;52.408;13.356;2023-05-07T15:25:37;3.53;;;1.52;;
45762;SDS011;37512;52.408;13.356;2023-05-07T15:29:39;2.20;;;1.58;;
45762;SDS011;37512;52.408;13.356;2023-05-07T15:33:40;2.33;;;1.83;;
45762;SDS011;37512;52.408;13.356;2023-05-07T15:37:41;3.72;;;1.67;;
45762;SDS011;37512;52.408;13.356;2023-05-07T15:41:43;1.75;;;1.40;;
45762;SDS011;37512;52.408;13.356;2023-05-07T15:45:45;2.38;;;1.65;;
45762;SDS011;37512;52.408;13.356;2023-05-07T15:49:50;2.47;;;1.30;;
45762;SDS011;37512;52.408;13.356;2023-05-07T15:53:55;1.50;;;1.20;;
45762;SDS011;37512;52.408;13.356;2023-05-07T15:57:59;2.25;;;1.60;;
45762;SDS011;37512;52.408;13.356;2023-05-07T16:02:05;2.42;;;1.48;;
45762;SDS011;37512;52.408;13.356;2023-05-07T16:06:13;2.47;;;1.42;;
45762;SDS011;37512;52.408;13.356;2023-05-07T16:10:15;2.17;;;1.40;;
45762;SDS011;37512;52.408;13.356;2023-05-07T16:14:22;2.08;;;1.40;;
45762;SDS011;37512;52.408;13.356;2023-05-07T16:18:24;3.63;;;1.58;;
45762;SDS011;37512;52.408;13.356;2023-05-07T16:22:29;3.30;;;1.80;;
45762;SDS011;37512;52.408;13.356;2023-05-07T16:26:31;4.28;;;1.70;;
45762;SDS011;37512;52.408;13.356;2023-05-07T16:30:33;3.70;;;2.15;;
45762;SDS011;37512;52.408;13.356;2023-05-07T16:34:35;3.88;;;1.80;;
45762;SDS011;37512;52.408;13.356;2023-05-07T16:38:36;1.70;;;1.40;;
45762;SDS011;37512;52.408;13.356;2023-05-07T16:42:38;4.47;;;1.77;;
45762;SDS011;37512;52.408;13.356;2023-05-07T16:46:40;5.47;;;1.55;;
45762;SDS011;37512;52.408;13.356;2023-05-07T16:50:41;1.80;;;1.30;;
45762;SDS011;37512;52.408;13.356;2023-05-07T16:54:44;1.63;;;1.20;;
45762;SDS011;37512;52.408;13.356;2023-05-07T16:58:46;2.40;;;1.58;;
45762;SDS011;37512;52.408;13.356;2023-05-07T17:02:47;1.98;;;1.38;;
45762;SDS011;37512;52.408;13.356;2023-05-07T17:06:49;5.15;;;1.60;;
45762;SDS011;37512;52.408;13.356;2023-05-07T17:10:51;1.80;;;1.30;;
45762;SDS011;37512;52.408;13.356;2023-05-07T17:14:52;2.05;;;1.17;;
45762;SDS011;37512;52.408;13.356;2023-05-07T17:18:54;2.67;;;1.50;;
45762;SDS011;37512;52.408;13.356;2023-05-07T17:22:55;1.50;;;1.15;;
45762;SDS011;37512;52.408;13.356;2023-05-07T17:26:57;2.92;;;1.20;;
45762;SDS011;37512;52.408;13.356;2023-05-07T17:30:58;4.20;;;1.10;;
45762;SDS011;37512;52.408;13.356;2023-05-07T17:35:00;2.05;;;1.25;;
45762;SDS011;37512;52.408;13.356;2023-05-07T17:39:02;1.50;;;1.02;;
45762;SDS011;37512;52.408;13.356;2023-05-07T17:43:04;1.52;;;1.10;;
45762;SDS011;37512;52.408;13.356;2023-05-07T17:47:06;1.90;;;1.27;;
45762;SDS011;37512;52.408;13.356;2023-05-07T17:51:08;2.25;;;1.10;;
45762;SDS011;37512;52.408;13.356;2023-05-07T17:55:09;1.80;;;1.20;;
45762;SDS011;37512;52.408;13.356;2023-05-07T17:59:11;3.35;;;1.40;;
45762;SDS011;37512;52.408;13.356;2023-05-07T18:03:13;2.25;;;1.70;;
45762;SDS011;37512;52.408;13.356;2023-05-07T18:07:17;2.17;;;1.40;;
45762;SDS011;37512;52.408;13.356;2023-05-07T18:11:19;2.47;;;1.55;;
45762;SDS011;37512;52.408;13.356;2023-05-07T18:15:22;3.78;;;1.80;;
45762;SDS011;37512;52.408;13.356;2023-05-07T18:19:23;2.92;;;1.90;;
45762;SDS011;37512;52.408;13.356;2023-05-07T18:23:27;2.10;;;1.33;;
45762;SDS011;37512;52.408;13.356;2023-05-07T18:27:28;1.60;;;1.30;;
45762;SDS011;37512;52.408;13.356;2023-05-07T18:31:30;3.85;;;1.70;;
45762;SDS011;37512;52.408;13.356;2023-05-07T18:35:32;2.40;;;1.70;;
45762;SDS011;37512;52.408;13.356;2023-05-07T18:39:34;2.45;;;1.45;;
45762;SDS011;37512;52.408;13.356;2023-05-07T18:43:36;2.55;;;1.88;;
45762;SDS011;37512;52.408;13.356;2023-05-07T18:47:37;3.58;;;1.58;;
45762;SDS011;37512;52.408;13.356;2023-05-07T18:51:39;2.75;;;1.83;;
45762;SDS011;37512;52.408;13.356;2023-05-07T18:55:41;6.65;;;1.67;;
45762;SDS011;37512;52.408;13.356;2023-05-07T18:59:46;3.95;;;2.13;;
45762;SDS011;37512;52.408;13.356;2023-05-07T19:03:47;2.90;;;1.98;;
45762;SDS011;37512;52.408;13.356;2023-05-07T19:07:49;2.30;;;1.60;;
45762;SDS011;37512;52.408;13.356;2023-05-07T19:11:51;4.03;;;2.08;;
45762;SDS011;37512;52.408;13.356;2023-05-07T19:15:52;6.38;;;2.17;;
45762;SDS011;37512;52.408;13.356;2023-05-07T19:19:54;2.50;;;1.73;;
45762;SDS011;37512;52.408;13.356;2023-05-07T19:23:56;7.90;;;1.65;;
45762;SDS011;37512;52.408;13.356;2023-05-07T19:27:57;2.50;;;1.75;;
45762;SDS011;37512;52.408;13.356;2023-05-07T19:31:59;2.17;;;1.63;;
45762;SDS011;37512;52.408;13.356;2023-05-07T19:36:01;2.38;;;1.77;;
45762;SDS011;37512;52.408;13.356;2023-05-07T19:40:03;3.92;;;2.58;;
45762;SDS011;37512;52.408;13.356;2023-05-07T19:44:06;2.42;;;1.83;;
45762;SDS011;37512;52.408;13.356;2023-05-07T19:48:08;6.43;;;2.10;;
45762;SDS011;37512;52.408;13.356;2023-05-07T19:52:10;2.22;;;1.65;;
45762;SDS011;37512;52.408;13.356;2023-05-07T19:56:11;3.38;;;2.25;;
45762;SDS011;37512;52.408;13.356;2023-05-07T20:00:13;2.33;;;2.00;;
45762;SDS011;37512;52.408;13.356;2023-05-07T20:04:15;3.88;;;2.78;;
45762;SDS011;37512;52.408;13.356;2023-05-07T20:08:16;2.42;;;2.20;;
45762;SDS011;37512;52.408;13.356;2023-05-07T20:12:18;3.58;;;2.85;;
45762;SDS011;37512;52.408;13.356;2023-05-07T20:16:21;3.17;;;2.17;;
45762;SDS011;37512;52.408;13.356;2023-05-07T20:20:23;3.03;;;2.30;;
45762;SDS011;37512;52.408;13.356;2023-05-07T20:24:25;3.22;;;2.70;;
45762;SDS011;37512;52.408;13.356;2023-05-07T20:28:27;3.80;;;3.08;;
45762;SDS011;37512;52.408;13.356;2023-05-07T20:32:29;3.40;;;2.47;;
45762;SDS011;37512;52.408;13.356;2023-05-07T20:36:30;2.92;;;2.30;;
45762;SDS011;37512;52.408;13.356;2023-05-07T20:40:32;3.85;;;2.40;;
45762;SDS011;37512;52.408;13.356;2023-05-07T20:44:37;4.85;;;2.72;;
45762;SDS011;37512;52.408;13.356;2023-05-07T20:48:38;3.50;;;2.50;;
45762;SDS011;37512;52.408;13.356;2023-05-07T20:52:40;3.58;;;2.58;;
45762;SDS011;37512;52.408;13.356;2023-05-07T20:56:42;4.40;;;2.80;;
45762;SDS011;37512;52.408;13.356;2023-05-07T21:00:43;3.65;;;2.55;;
45762;SDS011;37512;52.408;13.356;2023-05-07T21:04:45;5.90;;;3.40;;
45762;SDS011;37512;52.408;13.356;2023-05-07T21:08:46;5.35;;;2.80;;
45762;SDS011;37512;52.408;13.356;2023-05-07T21:12:48;3.35;;;2.70;;
45762;SDS011;37512;52.408;13.356;2023-05-07T21:16:50;4.30;;;3.15;;
45762;SDS011;37512;52.408;13.356;2023-05-07T21:20:51;3.85;;;3.20;;
45762;SDS011;37512;52.408;13.356;2023-05-07T21:24:53;3.85;;;2.83;;
45762;SDS011;37512;52.408;13.356;2023-05-07T21:28:54;6.32;;;3.33;;
45762;SDS011;37512;52.408;13.356;2023-05-07T21:32:56;4.22;;;3.03;;
45762;SDS011;37512;52.408;13.356;2023-05-07T21:36:58;4.07;;;3.00;;
45762;SDS011;37512;52.408;13.356;2023-05-07T21:40:59;3.85;;;2.85;;
45762;SDS011;37512;52.408;13.356;2023-05-07T21:45:03;5.03;;;3.75;;
45762;SDS011;37512;52.408;13.356;2023-05-07T21:49:05;5.18;;;4.00;;
45762;SDS011;37512;52.408;13.356;2023-05-07T21:53:06;3.75;;;3.25;;
45762;SDS011;37512;52.408;13.356;2023-05-07T21:57:08;3.83;;;3.08;;
45762;SDS011;37512;52.408;13.356;2023-05-07T22:01:10;5.07;;;3.58;;
45762;SDS011;37512;52.408;13.356;2023-05-07T22:05:13;4.60;;;3.90;;
45762;SDS011;37512;52.408;13.356;2023-05-07T22:09:14;5.35;;;3.70;;
45762;SDS011;37512;52.408;13.356;2023-05-07T22:13:16;7.03;;;4.25;;
45762;SDS011;37512;52.408;13.356;2023-05-07T22:17:17;8.70;;;3.50;;
45762;SDS011;37512;52.408;13.356;2023-05-07T22:21:19;7.10;;;4.35;;
45762;SDS011;37512;52.408;13.356;2023-05-07T22:25:21;7.15;;;4.00;;
45762;SDS011;37512;52.408;13.356;2023-05-07T22:29:23;4.15;;;3.63;;
45762;SDS011;37512;52.408;13.356;2023-05-07T22:33:25;5.40;;;3.97;;
45762;SDS011;37512;52.408;13.356;2023-05-07T22:37:26;3.90;;;3.42;;
45762;SDS011;37512;52.408;13.356;2023-05-07T22:41:28;4.28;;;3.63;;
45762;SDS011;37512;52.408;13.356;2023-05-07T22:45:29;6.38;;;4.00;;
45762;SDS011;37512;52.408;13.356;2023-05-07T22:49:33;5.07;;;4.32;;
45762;SDS011;37512;52.408;13.356;2023-05-07T22:53:35;5.93;;;4.32;;
45762;SDS011;37512;52.408;13.356;2023-05-07T22:57:36;6.05;;;4.60;;
45762;SDS011;37512;52.408;13.356;2023-05-07T23:01:40;6.40;;;4.13;;
45762;SDS011;37512;52.408;13.356;2023-05-07T23:05:44;4.97;;;3.75;;
45762;SDS011;37512;52.408;13.356;2023-05-07T23:09:49;6.72;;;4.38;;
45762;SDS011;37512;52.408;13.356;2023-05-07T23:13:50;5.15;;;3.75;;
45762;SDS011;37512;52.408;13.356;2023-05-07T23:17:52;5.30;;;3.97;;
45762;SDS011;37512;52.408;13.356;2023-05-07T23:21:53;5.90;;;4.60;;
45762;SDS011;37512;52.408;13.356;2023-05-07T23:25:55;5.88;;;4.32;;
45762;SDS011;37512;52.408;13.356;2023-05-07T23:29:57;5.68;;;4.20;;
45762;SDS011;37512;52.408;13.356;2023-05-07T23:33:58;6.72;;;4.63;;
45762;SDS011;37512;52.408;13.356;2023-05-07T23:37:59;6.43;;;4.70;;
45762;SDS011;37512;52.408;13.356;2023-05-07T23:42:01;6.90;;;5.07;;
45762;SDS011;37512;52.408;13.356;2023-05-07T23:46:02;4.93;;;4.25;;
45762;SDS011;37512;52.408;13.356;2023-05-07T23:50:04;5.95;;;4.88;;
45762;SDS011;37512;52.408;13.356;2023-05-07T23:54:06;5.35;;;4.40;;
45762;SDS011;37512;52.408;13.356;2023-05-07T23:58:07;6.05;;;4.22;;
